createdAt,value
2023-05-19T00:00:15.455Z,103008.63
2023-05-19T00:02:44.450Z,103004.31
2023-05-19T00:05:15.213Z,103004.38
2023-05-19T00:07:45.654Z,103007.03
2023-05-19T00:10:14.625Z,103007.06
2023-05-19T00:12:44.133Z,103011.59
2023-05-19T00:15:14.946Z,103012.63
2023-05-19T00:17:43.208Z,103002.31
2023-05-19T00:20:12.732Z,103007.56
2023-05-19T00:22:40.746Z,103009.34
2023-05-19T00:25:09.357Z,103009.47
2023-05-19T00:27:37.288Z,103019.06
2023-05-19T00:30:05.950Z,103016.47
2023-05-19T00:32:36.403Z,103013.97
2023-05-19T00:35:04.477Z,103007.19
2023-05-19T00:37:32.428Z,103014.38
2023-05-19T00:40:00.427Z,103011.03
2023-05-19T00:42:28.539Z,103024.97
2023-05-19T00:44:56.549Z,103024.22
2023-05-19T00:47:24.628Z,103021.66
2023-05-19T00:49:54.188Z,103020.19
2023-05-19T00:52:22.243Z,103031.53
2023-05-19T00:54:50.642Z,103020.38
2023-05-19T00:57:18.804Z,103033.47
2023-05-19T00:59:46.916Z,103034.34
2023-05-19T01:02:15.090Z,103035.44
2023-05-19T01:04:44.573Z,103043.31
2023-05-19T01:07:14.126Z,103037.38
2023-05-19T01:09:42.365Z,103040.06
2023-05-19T01:12:10.665Z,103041.75
2023-05-19T01:14:38.747Z,103047.91
2023-05-19T01:17:11.071Z,103053.16
2023-05-19T01:19:57.497Z,103048.84
2023-05-19T01:22:42.965Z,103044.63
2023-05-19T01:25:55.451Z,103049.88
2023-05-19T01:28:38.035Z,103053.44
2023-05-19T01:31:10.097Z,103050.00
2023-05-19T01:33:40.582Z,103054.28
2023-05-19T01:36:09.504Z,103049.16
2023-05-19T01:38:39.892Z,103057.13
2023-05-19T01:41:08.762Z,103058.03
2023-05-19T01:43:37.482Z,103040.78
2023-05-19T01:46:07.976Z,103054.63
2023-05-19T01:48:36.074Z,103052.94
2023-05-19T01:51:04.092Z,103059.16
2023-05-19T01:53:32.129Z,103058.38
2023-05-19T01:56:00.810Z,103051.59
2023-05-19T01:58:36.782Z,103057.69
2023-05-19T02:01:15.493Z,103059.44
2023-05-19T02:04:02.624Z,103055.19
2023-05-19T02:06:38.172Z,103055.22
2023-05-19T02:09:16.817Z,103060.41
2023-05-19T02:11:48.658Z,103065.59
2023-05-19T02:14:21.304Z,103068.13
2023-05-19T02:16:50.648Z,103068.94
2023-05-19T02:19:23.471Z,103069.88
2023-05-19T02:21:52.315Z,103066.41
2023-05-19T02:24:22.865Z,103060.28
2023-05-19T02:26:51.886Z,103063.66
2023-05-19T02:29:20.423Z,103061.06
2023-05-19T02:31:48.659Z,103064.59
2023-05-19T02:34:18.199Z,103062.91
2023-05-19T02:36:49.779Z,103068.19
2023-05-19T02:39:17.781Z,103062.13
2023-05-19T02:41:45.815Z,103063.03
2023-05-19T02:44:13.822Z,103064.72
2023-05-19T02:46:41.823Z,103066.41
2023-05-19T02:49:11.389Z,103068.09
2023-05-19T02:51:40.704Z,103059.41
2023-05-19T02:54:08.591Z,103062.84
2023-05-19T02:56:36.517Z,103065.44
2023-05-19T02:59:04.438Z,103066.25
2023-05-19T03:01:33.828Z,103065.38
2023-05-19T03:04:02.146Z,103067.97
2023-05-19T03:06:32.503Z,103062.78
2023-05-19T03:09:01.836Z,103066.97
2023-05-19T03:11:30.938Z,103066.94
2023-05-19T03:13:59.531Z,103070.38
2023-05-19T03:16:28.231Z,103075.53
2023-05-19T03:18:56.452Z,103072.81
2023-05-19T03:21:24.478Z,103078.03
2023-05-19T03:23:52.564Z,103078.81
2023-05-19T03:26:23.163Z,103078.75
2023-05-19T03:28:51.226Z,103081.28
2023-05-19T03:31:19.299Z,103082.88
2023-05-19T03:33:47.321Z,103091.50
2023-05-19T03:36:15.359Z,103082.69
2023-05-19T03:38:43.351Z,103097.19
2023-05-19T03:41:11.215Z,103082.16
2023-05-19T03:43:40.575Z,103087.22
2023-05-19T03:46:08.553Z,103080.06
2023-05-19T03:48:36.549Z,103083.00
2023-05-19T03:51:05.029Z,103080.09
2023-05-19T03:53:33.515Z,103083.16
2023-05-19T03:56:01.754Z,103084.81
2023-05-19T03:58:30.251Z,103081.16
2023-05-19T04:00:59.572Z,103081.44
2023-05-19T04:03:28.592Z,103089.88
2023-05-19T04:05:56.634Z,103085.56
2023-05-19T04:08:24.529Z,103086.75
2023-05-19T04:10:52.544Z,103098.78
2023-05-19T04:13:20.393Z,103091.72
2023-05-19T04:15:48.630Z,103091.03
2023-05-19T04:18:17.905Z,103095.63
2023-05-19T04:20:45.865Z,103099.22
2023-05-19T04:23:13.840Z,103102.38
2023-05-19T04:25:42.245Z,103097.88
2023-05-19T04:28:10.371Z,103100.50
2023-05-19T04:30:38.700Z,103101.31
2023-05-19T04:33:07.719Z,103105.28
2023-05-19T04:35:38.212Z,103102.75
2023-05-19T04:38:05.872Z,103106.66
2023-05-19T04:40:33.947Z,103105.84
2023-05-19T04:43:02.367Z,103102.66
2023-05-19T04:45:30.426Z,103110.56
2023-05-19T04:47:58.681Z,103104.16
2023-05-19T04:50:26.640Z,103111.66
2023-05-19T04:52:55.939Z,103110.47
2023-05-19T04:55:23.985Z,103106.59
2023-05-19T04:57:51.941Z,103103.34
2023-05-19T05:00:21.321Z,103103.94
2023-05-19T05:02:50.076Z,103107.81
2023-05-19T05:05:18.276Z,103105.44
2023-05-19T05:07:46.353Z,103107.25
2023-05-19T05:10:15.765Z,103103.81
2023-05-19T05:12:44.027Z,103104.19
2023-05-19T05:15:13.312Z,103104.63
2023-05-19T05:17:41.818Z,103113.59
2023-05-19T05:20:11.800Z,103121.03
2023-05-19T05:22:40.258Z,103111.91
2023-05-19T05:25:09.678Z,103110.47
2023-05-19T05:27:38.968Z,103105.56
2023-05-19T05:30:08.141Z,103108.38
2023-05-19T05:32:36.412Z,103109.56
2023-05-19T05:35:04.724Z,103112.34
2023-05-19T05:37:32.639Z,103112.47
2023-05-19T05:40:00.506Z,103110.09
2023-05-19T05:42:29.778Z,103111.78
2023-05-19T05:44:59.330Z,103103.06
2023-05-19T05:47:28.133Z,103106.84
2023-05-19T05:49:56.676Z,103111.47
2023-05-19T05:52:29.712Z,103109.41
2023-05-19T05:54:58.419Z,103110.16
2023-05-19T05:57:27.047Z,103112.13
2023-05-19T05:59:55.590Z,103114.53
2023-05-19T06:02:25.040Z,103116.91
2023-05-19T06:04:54.214Z,103115.00
2023-05-19T06:07:22.566Z,103117.72
2023-05-19T06:09:50.494Z,103122.38
2023-05-19T06:12:18.466Z,103108.38
2023-05-19T06:14:46.412Z,103117.13
2023-05-19T06:17:14.437Z,103113.13
2023-05-19T06:19:43.854Z,103110.03
2023-05-19T06:22:11.886Z,103109.59
2023-05-19T06:24:39.919Z,103109.94
2023-05-19T06:27:07.858Z,103110.81
2023-05-19T06:29:35.909Z,103110.56
2023-05-19T06:32:04.001Z,103106.63
2023-05-19T06:34:32.316Z,103110.38
2023-05-19T06:37:02.536Z,103104.81
2023-05-19T06:39:30.635Z,103119.31
2023-05-19T06:41:58.653Z,103114.28
2023-05-19T06:44:26.744Z,103112.13
2023-05-19T06:46:54.637Z,103112.50
2023-05-19T06:49:22.609Z,103113.72
2023-05-19T06:51:50.559Z,103108.97
2023-05-19T06:54:19.927Z,103119.38
2023-05-19T06:56:48.010Z,103125.28
2023-05-19T06:59:16.257Z,103121.19
2023-05-19T07:01:44.197Z,103123.25
2023-05-19T07:04:12.263Z,103125.19
2023-05-19T07:06:40.222Z,103128.22
2023-05-19T07:09:08.945Z,103128.13
2023-05-19T07:11:38.584Z,103134.69
2023-05-19T07:14:06.516Z,103132.34
2023-05-19T07:16:34.510Z,103136.16
2023-05-19T07:19:02.514Z,103141.22
2023-05-19T07:21:30.778Z,103144.75
2023-05-19T07:23:58.733Z,103140.91
2023-05-19T07:26:27.415Z,103138.56
2023-05-19T07:28:57.858Z,103138.47
2023-05-19T07:31:26.012Z,103144.03
2023-05-19T07:33:54.877Z,103143.28
2023-05-19T07:36:22.894Z,103146.44
2023-05-19T07:38:51.076Z,103143.66
2023-05-19T07:41:19.077Z,103142.81
2023-05-19T07:43:47.104Z,103145.06
2023-05-19T07:46:16.435Z,103143.19
2023-05-19T07:48:44.406Z,103144.38
2023-05-19T07:51:13.628Z,103140.84
2023-05-19T07:53:41.632Z,103144.56
2023-05-19T07:56:09.642Z,103141.03
2023-05-19T07:58:37.567Z,103138.50
2023-05-19T08:01:06.463Z,103133.19
2023-05-19T08:03:35.853Z,103135.13
2023-05-19T08:06:03.961Z,103125.78
2023-05-19T08:08:33.444Z,103126.47
2023-05-19T08:11:04.515Z,103131.19
2023-05-19T08:13:32.790Z,103131.00
2023-05-19T08:16:00.880Z,103132.59
2023-05-19T08:18:28.873Z,103126.34
2023-05-19T08:20:58.623Z,103125.69
2023-05-19T08:23:26.688Z,103128.16
2023-05-19T08:25:54.654Z,103124.91
2023-05-19T08:28:22.595Z,103121.97
2023-05-19T08:30:52.295Z,103123.94
2023-05-19T08:33:21.512Z,103128.38
2023-05-19T08:35:49.812Z,103123.91
2023-05-19T08:38:19.124Z,103127.66
2023-05-19T08:40:48.453Z,103120.84
2023-05-19T08:43:16.485Z,103127.84
2023-05-19T08:45:46.532Z,103119.78
2023-05-19T08:48:15.585Z,103129.59
2023-05-19T08:50:51.327Z,103124.94
2023-05-19T08:56:04.011Z,103111.06
2023-05-19T08:58:33.384Z,103119.44
2023-05-19T09:01:03.211Z,103119.44
2023-05-19T09:03:32.868Z,103108.91
2023-05-19T09:06:00.909Z,103116.94
2023-05-19T09:08:30.461Z,103116.63
2023-05-19T09:10:58.427Z,103124.78
2023-05-19T09:13:26.425Z,103110.03
2023-05-19T09:15:54.747Z,103108.38
2023-05-19T09:18:22.773Z,103102.19
2023-05-19T09:20:51.012Z,103116.84
2023-05-19T09:23:19.285Z,103110.97
2023-05-19T09:25:53.081Z,103106.06
2023-05-19T09:28:28.093Z,103108.00
2023-05-19T09:31:04.305Z,103103.22
2023-05-19T09:33:34.608Z,103105.38
2023-05-19T09:36:03.335Z,103105.47
2023-05-19T09:38:31.320Z,103108.97
2023-05-19T09:41:01.344Z,103098.56
2023-05-19T09:43:30.153Z,103095.72
2023-05-19T09:46:01.758Z,103099.72
2023-05-19T09:48:30.441Z,103095.16
2023-05-19T09:50:59.144Z,103089.59
2023-05-19T09:53:27.341Z,103091.84
2023-05-19T09:55:57.717Z,103090.00
2023-05-19T09:58:27.985Z,103087.06
2023-05-19T10:00:57.015Z,103084.97
2023-05-19T10:03:26.443Z,103088.50
2023-05-19T10:05:54.841Z,103087.84
2023-05-19T10:08:24.534Z,103095.38
2023-05-19T10:10:52.541Z,103088.19
2023-05-19T10:13:22.902Z,103086.56
2023-05-19T10:15:58.906Z,103086.66
2023-05-19T10:18:29.565Z,103078.81
2023-05-19T10:20:58.936Z,103087.94
2023-05-19T10:23:26.985Z,103088.53
2023-05-19T10:25:57.826Z,103077.97
2023-05-19T10:28:30.360Z,103087.13
2023-05-19T10:31:02.767Z,103077.34
2023-05-19T10:33:43.217Z,103073.63
2023-05-19T10:36:25.405Z,103081.59
2023-05-19T10:39:00.284Z,103074.19
2023-05-19T10:41:35.365Z,103071.41
2023-05-19T10:44:11.101Z,103069.81
2023-05-19T10:46:41.282Z,103069.06
2023-05-19T10:49:09.631Z,103067.16
2023-05-19T10:51:38.272Z,103066.72
2023-05-19T10:54:11.545Z,103071.22
2023-05-19T10:56:42.617Z,103068.66
2023-05-19T10:59:34.292Z,103072.78
2023-05-19T11:02:06.685Z,103064.09
2023-05-19T11:04:49.536Z,103065.25
2023-05-19T11:07:21.066Z,103066.41
2023-05-19T11:09:52.294Z,103070.44
2023-05-19T11:12:25.509Z,103070.44
2023-05-19T11:14:53.995Z,103066.13
2023-05-19T11:17:26.331Z,103055.69
2023-05-19T11:19:56.022Z,103064.19
2023-05-19T11:22:26.079Z,103065.66
2023-05-19T11:24:56.202Z,103059.72
2023-05-19T11:27:28.965Z,103067.78
2023-05-19T11:29:59.244Z,103063.75
2023-05-19T11:32:30.940Z,103072.78
2023-05-19T11:34:59.286Z,103058.66
2023-05-19T11:37:28.747Z,103057.78
2023-05-19T11:39:56.679Z,103069.94
2023-05-19T11:42:25.225Z,103063.75
2023-05-19T11:44:56.869Z,103065.34
2023-05-19T11:47:24.983Z,103070.97
2023-05-19T11:49:56.689Z,103059.19
2023-05-19T11:52:25.400Z,103061.41
2023-05-19T11:54:53.488Z,103068.22
2023-05-19T11:57:21.558Z,103071.28
2023-05-19T11:59:52.325Z,103074.06
2023-05-19T12:02:22.148Z,103064.16
2023-05-19T12:04:50.685Z,103057.16
2023-05-19T12:07:22.936Z,103062.59
2023-05-19T12:09:52.146Z,103053.13
2023-05-19T12:12:21.056Z,103058.63
2023-05-19T12:14:50.203Z,103063.75
2023-05-19T12:17:20.149Z,103062.16
2023-05-19T12:19:49.767Z,103057.56
2023-05-19T12:22:20.609Z,103053.97
2023-05-19T12:24:49.103Z,103058.31
2023-05-19T12:27:20.568Z,103053.22
2023-05-19T12:29:51.777Z,103051.84
2023-05-19T12:32:20.321Z,103056.63
2023-05-19T12:34:48.297Z,103055.94
2023-05-19T12:37:16.423Z,103062.47
2023-05-19T12:39:46.106Z,103059.13
2023-05-19T12:42:14.181Z,103053.19
2023-05-19T12:44:46.810Z,103049.91
2023-05-19T12:47:15.743Z,103043.50
2023-05-19T12:49:55.774Z,103051.59
2023-05-19T12:52:24.191Z,103048.19
2023-05-19T12:54:59.885Z,103055.94
2023-05-19T12:57:28.291Z,103061.16
2023-05-19T13:00:01.945Z,103055.22
2023-05-19T13:02:30.006Z,103048.22
2023-05-19T13:04:58.764Z,103040.66
2023-05-19T13:07:26.642Z,103051.56
2023-05-19T13:09:56.629Z,103044.56
2023-05-19T13:12:24.739Z,103046.69
2023-05-19T13:14:55.423Z,103039.16
2023-05-19T13:17:23.730Z,103037.13
2023-05-19T13:19:51.729Z,103043.63
2023-05-19T13:22:19.736Z,103045.44
2023-05-19T13:24:48.279Z,103033.00
2023-05-19T13:27:17.699Z,103032.03
2023-05-19T13:29:45.715Z,103035.88
2023-05-19T13:32:13.557Z,103022.91
2023-05-19T13:34:41.443Z,103019.94
2023-05-19T13:37:10.297Z,103023.50
2023-05-19T13:39:39.061Z,103026.16
2023-05-19T13:42:07.708Z,103025.03
2023-05-19T13:44:37.132Z,103015.22
2023-05-19T13:47:05.337Z,103013.97
2023-05-19T13:49:33.256Z,103018.53
2023-05-19T13:52:01.181Z,103011.91
2023-05-19T13:54:29.145Z,103015.44
2023-05-19T13:56:57.466Z,103013.50
2023-05-19T13:59:26.783Z,103006.25
2023-05-19T14:01:56.321Z,103011.69
2023-05-19T14:04:24.824Z,103017.97
2023-05-19T14:06:52.902Z,103006.03
2023-05-19T14:09:20.866Z,103014.13
2023-05-19T14:11:48.860Z,103011.56
2023-05-19T14:14:17.543Z,103005.31
2023-05-19T14:16:45.489Z,103013.09
2023-05-19T14:19:14.942Z,103010.56
2023-05-19T14:21:42.870Z,103008.97
2023-05-19T14:24:10.917Z,103016.88
2023-05-19T14:26:38.959Z,103012.31
2023-05-19T14:29:07.018Z,103012.00
2023-05-19T14:31:35.347Z,103007.56
2023-05-19T14:34:03.356Z,103010.91
2023-05-19T14:36:33.965Z,103009.44
2023-05-19T14:39:02.156Z,102996.78
2023-05-19T14:41:30.016Z,103001.28
2023-05-19T14:43:57.930Z,103010.75
2023-05-19T14:46:25.887Z,103017.75
2023-05-19T14:48:53.876Z,103003.44
2023-05-19T14:51:21.976Z,103009.75
2023-05-19T14:53:51.561Z,103017.59
2023-05-19T14:56:19.489Z,103014.84
2023-05-19T14:58:47.390Z,103012.88
2023-05-19T15:01:15.435Z,103016.97
2023-05-19T15:03:43.561Z,103016.00
2023-05-19T15:06:11.764Z,103018.16
2023-05-19T15:08:40.831Z,103009.09
2023-05-19T15:11:10.154Z,103008.66
2023-05-19T15:13:38.072Z,103008.66
2023-05-19T15:16:17.728Z,103014.19
2023-05-19T15:18:46.249Z,103008.13
2023-05-19T15:21:14.291Z,103012.84
2023-05-19T15:23:42.634Z,103003.81
2023-05-19T15:26:12.153Z,103003.94
2023-05-19T15:28:40.154Z,103000.56
2023-05-19T15:31:08.522Z,103001.06
2023-05-19T15:33:36.858Z,103004.25
2023-05-19T15:36:05.043Z,103001.69
2023-05-19T15:38:36.388Z,102999.78
2023-05-19T15:41:08.180Z,102997.84
2023-05-19T15:43:37.465Z,102996.16
2023-05-19T15:46:06.015Z,103000.50
2023-05-19T15:48:34.427Z,102993.50
2023-05-19T15:51:02.461Z,102997.00
2023-05-19T15:53:30.439Z,102998.28
2023-05-19T15:55:58.467Z,102994.91
2023-05-19T15:58:26.494Z,102996.50
2023-05-19T16:00:55.903Z,102998.50
2023-05-19T16:03:23.976Z,102997.78
2023-05-19T16:05:52.144Z,102998.00
2023-05-19T16:08:20.104Z,102996.19
2023-05-19T16:10:47.955Z,103001.72
2023-05-19T16:13:15.842Z,102996.94
2023-05-19T16:15:43.872Z,103007.56
2023-05-19T16:18:13.333Z,103010.56
2023-05-19T16:20:41.481Z,103007.06
2023-05-19T16:23:09.483Z,103009.19
2023-05-19T16:25:37.439Z,103004.09
2023-05-19T16:28:05.806Z,103007.94
2023-05-19T16:30:34.012Z,103005.63
2023-05-19T16:33:02.450Z,103015.38
2023-05-19T16:35:32.201Z,103014.03
2023-05-19T16:38:00.291Z,103005.75
2023-05-19T16:40:30.710Z,103010.00
2023-05-19T16:42:59.116Z,103017.97
2023-05-19T16:45:27.438Z,103017.53
2023-05-19T16:47:55.434Z,103023.28
2023-05-19T16:50:23.433Z,103017.47
2023-05-19T16:52:52.899Z,103012.78
2023-05-19T16:55:20.881Z,103017.66
2023-05-19T16:57:48.750Z,103023.28
2023-05-19T17:00:17.259Z,103018.94
2023-05-19T17:02:45.316Z,103021.91
2023-05-19T17:05:13.387Z,103021.66
2023-05-19T17:07:41.458Z,103024.19
2023-05-19T17:10:11.518Z,103016.53
2023-05-19T17:12:39.462Z,103026.09
2023-05-19T17:15:08.410Z,103031.59
2023-05-19T17:17:36.360Z,103021.41
2023-05-19T17:20:04.558Z,103027.13
2023-05-19T17:22:32.568Z,103022.41
2023-05-19T17:25:01.932Z,103027.09
2023-05-19T17:27:31.266Z,103031.94
2023-05-19T17:29:59.231Z,103033.59
2023-05-19T17:32:28.979Z,103031.47
2023-05-19T17:34:57.224Z,103029.09
2023-05-19T17:37:25.842Z,103034.69
2023-05-19T17:39:53.775Z,103031.59
2023-05-19T17:42:21.798Z,103035.19
2023-05-19T17:44:51.222Z,103039.25
2023-05-19T17:47:19.184Z,103041.53
2023-05-19T17:49:47.926Z,103042.00
2023-05-19T17:52:16.728Z,103044.22
2023-05-19T17:54:45.066Z,103051.88
2023-05-19T17:57:13.434Z,103048.94
2023-05-19T17:59:41.988Z,103051.50
2023-05-19T18:02:12.152Z,103045.72
2023-05-19T18:04:40.826Z,103052.94
2023-05-19T18:07:10.456Z,103049.97
2023-05-19T18:09:39.561Z,103057.88
2023-05-19T18:12:08.062Z,103059.03
2023-05-19T18:14:35.947Z,103063.97
2023-05-19T18:17:03.888Z,103061.78
2023-05-19T18:19:33.301Z,103069.50
2023-05-19T18:22:01.484Z,103077.19
2023-05-19T18:24:29.364Z,103068.00
2023-05-19T18:26:57.572Z,103086.06
2023-05-19T18:29:25.548Z,103081.59
2023-05-19T18:31:53.529Z,103092.69
2023-05-19T18:34:21.486Z,103089.94
2023-05-19T18:36:50.840Z,103093.72
2023-05-19T18:39:18.828Z,103091.78
2023-05-19T18:41:47.500Z,103097.72
2023-05-19T18:44:15.534Z,103104.19
2023-05-19T18:46:43.493Z,103102.06
2023-05-19T18:49:11.982Z,103103.38
2023-05-19T18:51:40.068Z,103103.88
2023-05-19T18:54:09.434Z,103112.34
2023-05-19T18:56:37.497Z,103113.59
2023-05-19T18:59:05.421Z,103115.84
2023-05-19T19:01:33.328Z,103119.72
2023-05-19T19:04:02.065Z,103128.81
2023-05-19T19:06:30.071Z,103132.59
2023-05-19T19:08:57.981Z,103137.31
2023-05-19T19:11:27.474Z,103136.09
2023-05-19T19:13:56.779Z,103138.00
2023-05-19T19:16:24.809Z,103139.50
2023-05-19T19:18:52.857Z,103139.31
2023-05-19T19:21:24.050Z,103149.22
2023-05-19T19:23:53.972Z,103156.56
2023-05-19T19:26:22.821Z,103150.75
2023-05-19T19:28:52.204Z,103158.00
2023-05-19T19:31:20.221Z,103153.94
2023-05-19T19:33:48.231Z,103154.66
2023-05-19T19:36:16.209Z,103155.72
2023-05-19T19:38:44.196Z,103170.00
2023-05-19T19:41:12.086Z,103171.00
2023-05-19T19:43:40.005Z,103167.84
2023-05-19T19:46:09.504Z,103167.38
2023-05-19T19:48:37.486Z,103171.97
2023-05-19T19:51:05.778Z,103163.41
2023-05-19T19:53:33.704Z,103169.06
2023-05-19T19:56:02.966Z,103165.59
2023-05-19T19:58:31.358Z,103172.63
2023-05-19T20:00:59.827Z,103170.28
2023-05-19T20:03:29.566Z,103175.59
2023-05-19T20:05:57.733Z,103172.28
2023-05-19T20:08:26.064Z,103179.50
2023-05-19T20:10:54.726Z,103178.00
2023-05-19T20:13:22.733Z,103191.41
2023-05-19T20:15:50.720Z,103190.81
2023-05-19T20:18:18.783Z,103195.31
2023-05-19T20:20:48.223Z,103193.88
2023-05-19T20:23:16.295Z,103192.25
2023-05-19T20:26:02.314Z,103194.25
2023-05-19T20:28:32.217Z,103195.44
2023-05-19T20:31:00.356Z,103191.59
2023-05-19T20:33:28.345Z,103194.16
2023-05-19T20:35:57.743Z,103199.47
2023-05-19T20:38:25.636Z,103205.88
2023-05-19T20:40:55.237Z,103200.09
2023-05-19T20:43:23.179Z,103201.13
2023-05-19T20:45:51.396Z,103198.50
2023-05-19T20:48:19.512Z,103202.91
2023-05-19T20:50:47.591Z,103210.09
2023-05-19T20:53:17.011Z,103201.50
2023-05-19T20:55:45.579Z,103211.25
2023-05-19T20:58:13.554Z,103211.47
2023-05-19T21:00:41.672Z,103215.09
2023-05-19T21:03:09.658Z,103215.97
2023-05-19T21:05:37.630Z,103217.94
2023-05-19T21:08:05.764Z,103211.25
2023-05-19T21:10:35.252Z,103221.91
2023-05-19T21:13:03.255Z,103216.78
2023-05-19T21:15:31.218Z,103210.69
2023-05-19T21:17:59.217Z,103212.63
2023-05-19T21:20:29.168Z,103220.03
2023-05-19T21:22:57.056Z,103215.78
2023-05-19T21:25:24.948Z,103222.91
2023-05-19T21:27:55.520Z,103233.53
2023-05-19T21:30:24.099Z,103229.22
2023-05-19T21:32:52.195Z,103228.56
2023-05-19T21:35:20.213Z,103231.44
2023-05-19T21:37:48.262Z,103233.34
2023-05-19T21:40:16.181Z,103235.13
2023-05-19T21:42:44.211Z,103229.25
2023-05-19T21:45:13.803Z,103232.78
2023-05-19T21:47:41.777Z,103233.00
2023-05-19T21:50:11.029Z,103236.59
2023-05-19T21:52:38.924Z,103235.06
2023-05-19T21:55:08.196Z,103229.22
2023-05-19T21:57:36.144Z,103240.75
2023-05-19T22:00:06.502Z,103235.81
2023-05-19T22:02:35.684Z,103233.66
2023-05-19T22:05:03.982Z,103233.59
2023-05-19T22:07:31.913Z,103232.72
2023-05-19T22:09:59.887Z,103230.25
2023-05-19T22:12:27.850Z,103227.72
2023-05-19T22:14:56.061Z,103236.75
2023-05-19T22:17:24.114Z,103235.25
2023-05-19T22:19:53.604Z,103231.13
2023-05-19T22:22:21.661Z,103236.50
2023-05-19T22:24:49.607Z,103243.53
2023-05-19T22:27:17.628Z,103253.97
2023-05-19T22:29:45.893Z,103264.56
2023-05-19T22:32:14.169Z,103266.41
2023-05-19T22:34:42.179Z,103263.09
2023-05-19T22:37:11.473Z,103259.78
2023-05-19T22:39:39.627Z,103261.56
2023-05-19T22:42:07.609Z,103259.16
2023-05-19T22:44:35.509Z,103257.69
2023-05-19T22:47:03.484Z,103263.88
2023-05-19T22:49:31.570Z,103262.25
2023-05-19T22:51:59.484Z,103262.44
2023-05-19T22:54:28.764Z,103269.50
2023-05-19T22:56:56.725Z,103261.06
2023-05-19T22:59:24.739Z,103264.69
2023-05-19T23:01:52.888Z,103264.06
2023-05-19T23:04:21.199Z,103269.38
2023-05-19T23:06:50.068Z,103266.88
2023-05-19T23:09:18.053Z,103269.69
2023-05-19T23:11:47.440Z,103267.22
2023-05-19T23:14:15.425Z,103263.00
2023-05-19T23:16:43.582Z,103269.22
2023-05-19T23:19:11.588Z,103265.00
2023-05-19T23:21:39.682Z,103261.59
2023-05-19T23:24:07.905Z,103261.66
2023-05-19T23:26:35.858Z,103255.72
2023-05-19T23:29:05.215Z,103264.59
2023-05-19T23:31:34.755Z,103263.03
2023-05-19T23:34:03.015Z,103259.72
2023-05-19T23:36:31.324Z,103255.56
2023-05-19T23:38:59.284Z,103258.38
2023-05-19T23:41:27.284Z,103261.06
2023-05-19T23:43:55.217Z,103261.97
2023-05-19T23:46:24.716Z,103267.19
2023-05-19T23:48:52.723Z,103267.28
2023-05-19T23:51:20.640Z,103272.69
2023-05-19T23:53:48.584Z,103272.78
2023-05-19T23:56:16.526Z,103271.84
2023-05-19T23:58:44.588Z,103270.06
